Hacienda de Canovanas, Puerto Rico
Current Conditions -  °F | °C
As of 12:56 AM on Sunday 23 Nov 2014 (Local Time) from TJSJ Reporting Station
Broken Clouds Broken Clouds  
Wind Chill: 78°   Ceiling: 5500
Heat Index: 81°   Visibility: 10mi
Dew Point: 76°   Wind: 6mph
Humidity: 93%   Direction: 110°ESE
Pressure: 30.01"   Gusts: NA
Location:  18.3747°N, 65.9126°W
Report Text: TJSJ 230456Z 11005KT 10SM SCT025 SCT035 BKN055 26/24 A3001 RMK AO2 SLP162 T02560244 $
Loading
Personal Weather Stations






























Interactive Weather Map New forecast layout! Learn more

10-Day Weather Forecast

Advertisements
Track Severe Weather on mobile